createdAt,value
2022-08-04T00:02:15.500Z,100.00
2022-08-04T00:04:55.190Z,100.00
2022-08-04T00:07:45.045Z,100.00
2022-08-04T00:10:15.349Z,100.00
2022-08-04T00:12:47.082Z,100.00
2022-08-04T00:15:16.723Z,100.00
2022-08-04T00:17:54.320Z,100.00
2022-08-04T00:20:21.636Z,100.00
2022-08-04T00:22:49.106Z,100.00
2022-08-04T00:25:15.662Z,100.00
2022-08-04T00:27:43.616Z,100.00
2022-08-04T00:30:10.838Z,100.00
2022-08-04T00:32:40.723Z,100.00
2022-08-04T00:35:09.701Z,100.00
2022-08-04T00:37:38.400Z,100.00
2022-08-04T00:40:19.141Z,100.00
2022-08-04T00:43:06.114Z,100.00
2022-08-04T00:46:14.955Z,100.00
2022-08-04T00:48:58.475Z,100.00
2022-08-04T00:52:31.736Z,100.00
2022-08-04T00:55:08.622Z,100.00
2022-08-04T00:57:58.883Z,100.00
2022-08-04T01:00:26.050Z,100.00
2022-08-04T01:02:59.999Z,100.00
2022-08-04T01:06:04.117Z,100.00
2022-08-04T01:08:49.506Z,100.00
2022-08-04T01:11:24.608Z,100.00
2022-08-04T01:14:17.227Z,100.00
2022-08-04T01:16:52.656Z,100.00
2022-08-04T01:19:36.947Z,100.00
2022-08-04T01:22:33.526Z,100.00
2022-08-04T01:25:45.041Z,100.00
2022-08-04T01:28:43.574Z,100.00
2022-08-04T01:31:25.900Z,100.00
2022-08-04T01:34:04.259Z,100.00
2022-08-04T01:36:34.844Z,100.00
2022-08-04T01:39:21.838Z,100.00
2022-08-04T01:41:57.981Z,100.00
2022-08-04T01:44:28.580Z,100.00
2022-08-04T01:46:55.283Z,100.00
2022-08-04T01:49:23.148Z,100.00
2022-08-04T01:51:52.210Z,100.00
2022-08-04T01:54:19.804Z,100.00
2022-08-04T01:56:49.304Z,100.00
2022-08-04T01:59:19.403Z,100.00
2022-08-04T02:01:46.344Z,100.00
2022-08-04T02:04:23.068Z,100.00
2022-08-04T02:07:25.501Z,100.00
2022-08-04T02:10:03.736Z,100.00
2022-08-04T02:12:39.795Z,100.00
2022-08-04T02:15:12.091Z,100.00
2022-08-04T02:17:57.242Z,100.00
2022-08-04T02:20:37.124Z,100.00
2022-08-04T02:23:07.843Z,100.00
2022-08-04T02:25:45.786Z,100.00
2022-08-04T02:28:15.114Z,100.00
2022-08-04T02:31:15.912Z,100.00
2022-08-04T02:33:44.624Z,100.00
2022-08-04T02:36:21.245Z,100.00
2022-08-04T02:38:57.884Z,100.00
2022-08-04T02:41:26.925Z,100.00
2022-08-04T02:43:57.568Z,100.00
2022-08-04T02:46:25.179Z,100.00
2022-08-04T02:48:53.417Z,100.00
2022-08-04T02:51:23.360Z,100.00
2022-08-04T02:53:53.637Z,100.00
2022-08-04T02:56:21.572Z,100.00
2022-08-04T02:59:03.179Z,100.00
2022-08-04T03:01:30.623Z,100.00
2022-08-04T03:04:16.199Z,100.00
2022-08-04T03:07:25.489Z,100.00
2022-08-04T03:10:07.190Z,100.00
2022-08-04T03:13:12.827Z,100.00
2022-08-04T03:15:59.970Z,100.00
2022-08-04T03:18:50.943Z,100.00
2022-08-04T03:21:47.522Z,100.00
2022-08-04T03:24:25.392Z,100.00
2022-08-04T03:27:12.027Z,100.00
2022-08-04T03:30:03.572Z,100.00
2022-08-04T03:33:07.118Z,100.00
2022-08-04T03:35:48.470Z,100.00
2022-08-04T03:38:29.100Z,100.00
2022-08-04T03:41:10.859Z,100.00
2022-08-04T03:43:58.742Z,100.00
2022-08-04T03:47:00.247Z,100.00
2022-08-04T03:49:53.733Z,100.00
2022-08-04T03:53:09.981Z,100.00
2022-08-04T03:56:06.487Z,100.00
2022-08-04T03:58:53.989Z,100.00
2022-08-04T04:02:02.859Z,100.00
2022-08-04T04:04:51.899Z,100.00
2022-08-04T04:07:27.213Z,100.00
2022-08-04T04:10:28.708Z,100.00
2022-08-04T04:13:10.688Z,100.00
2022-08-04T04:15:50.194Z,100.00
2022-08-04T04:18:45.551Z,100.00
2022-08-04T04:21:38.761Z,100.00
2022-08-04T04:24:24.319Z,100.00
2022-08-04T04:27:18.206Z,100.00
2022-08-04T04:30:06.573Z,100.00
2022-08-04T04:32:59.775Z,100.00
2022-08-04T04:35:38.011Z,100.00
2022-08-04T04:38:30.759Z,100.00
2022-08-04T04:41:06.641Z,100.00
2022-08-04T04:44:03.235Z,100.00
2022-08-04T04:46:37.802Z,100.00
2022-08-04T04:49:28.875Z,100.00
2022-08-04T04:52:04.155Z,100.00
2022-08-04T04:54:39.763Z,100.00
2022-08-04T04:57:18.144Z,100.00
2022-08-04T04:59:51.943Z,100.00
2022-08-04T05:02:37.126Z,100.00
2022-08-04T05:05:41.062Z,100.00
2022-08-04T05:08:42.719Z,100.00
2022-08-04T05:11:36.779Z,100.00
2022-08-04T05:14:37.449Z,100.00
2022-08-04T05:17:04.457Z,100.00
2022-08-04T05:20:38.974Z,100.00
2022-08-04T05:23:19.510Z,100.00
2022-08-04T05:26:10.190Z,100.00
2022-08-04T05:28:41.167Z,100.00
2022-08-04T05:31:13.903Z,100.00
2022-08-04T05:33:47.180Z,100.00
2022-08-04T05:36:39.521Z,100.00
2022-08-04T05:39:08.595Z,100.00
2022-08-04T05:41:45.140Z,100.00
2022-08-04T05:44:14.979Z,100.00
2022-08-04T05:46:43.450Z,100.00
2022-08-04T05:49:11.288Z,100.00
2022-08-04T05:51:46.106Z,100.00
2022-08-04T05:54:13.771Z,100.00
2022-08-04T05:56:42.807Z,100.00
2022-08-04T05:59:11.238Z,100.00
2022-08-04T06:01:56.284Z,100.00
2022-08-04T06:04:37.364Z,100.00
2022-08-04T06:07:04.610Z,100.00
2022-08-04T06:09:31.671Z,100.00
2022-08-04T06:12:04.439Z,100.00
2022-08-04T06:14:39.552Z,100.00
2022-08-04T06:18:32.738Z,100.00
2022-08-04T06:19:58.983Z,97.13
2022-08-04T06:22:33.942Z,96.95
2022-08-04T06:25:02.782Z,97.29
2022-08-04T06:27:31.608Z,98.33
2022-08-04T06:29:59.829Z,95.86
2022-08-04T06:32:41.308Z,95.79
2022-08-04T06:35:09.563Z,95.77
2022-08-04T06:37:42.191Z,94.53
2022-08-04T06:40:30.665Z,94.41
2022-08-04T06:42:59.572Z,92.64
2022-08-04T06:45:26.839Z,90.80
2022-08-04T06:47:54.606Z,90.04
2022-08-04T06:51:32.267Z,92.84
2022-08-04T06:53:09.120Z,90.15
2022-08-04T06:55:38.304Z,89.92
2022-08-04T06:58:06.237Z,92.26
2022-08-04T07:00:34.548Z,87.58
2022-08-04T07:03:02.260Z,85.18
2022-08-04T07:05:29.120Z,80.21
2022-08-04T07:07:56.977Z,78.48
2022-08-04T07:10:27.636Z,76.78
2022-08-04T07:12:56.216Z,80.64
2022-08-04T07:15:24.965Z,79.53
2022-08-04T07:17:52.582Z,77.91
2022-08-04T07:20:34.722Z,76.25
2022-08-04T07:23:06.607Z,71.72
2022-08-04T07:25:58.566Z,68.99
2022-08-04T07:28:26.039Z,65.12
2022-08-04T07:30:54.029Z,64.40
2022-08-04T07:33:21.074Z,65.97
2022-08-04T07:36:10.583Z,58.30
2022-08-04T07:38:48.581Z,58.06
2022-08-04T07:41:38.719Z,53.90
2022-08-04T07:44:06.735Z,53.55
2022-08-04T07:46:33.252Z,53.07
2022-08-04T07:49:01.244Z,49.33
2022-08-04T07:51:30.534Z,47.30
2022-08-04T07:53:58.462Z,47.58
2022-08-04T07:56:26.666Z,46.38
2022-08-04T07:58:53.287Z,45.23
2022-08-04T08:01:20.154Z,46.86
2022-08-04T08:03:48.368Z,48.74
2022-08-04T08:06:30.781Z,45.13
2022-08-04T08:09:12.479Z,46.46
2022-08-04T08:12:38.719Z,47.46
2022-08-04T08:14:30.680Z,41.60
2022-08-04T08:17:00.226Z,44.80
2022-08-04T08:19:26.771Z,45.92
2022-08-04T08:21:58.922Z,42.97
2022-08-04T08:24:28.705Z,41.57
2022-08-04T08:26:56.802Z,43.40
2022-08-04T08:29:25.799Z,43.35
2022-08-04T08:31:57.506Z,43.61
2022-08-04T08:34:27.898Z,40.11
2022-08-04T08:37:03.938Z,39.10
2022-08-04T08:39:42.701Z,39.73
2022-08-04T08:42:46.524Z,41.08
2022-08-04T08:46:10.115Z,40.02
2022-08-04T08:49:13.993Z,38.49
2022-08-04T08:53:01.739Z,39.50
2022-08-04T08:55:30.573Z,38.10
2022-08-04T08:58:06.486Z,38.10
2022-08-04T09:00:45.533Z,40.56
2022-08-04T09:03:36.782Z,38.51
2022-08-04T09:06:18.987Z,38.81
2022-08-04T09:09:12.482Z,38.58
2022-08-04T09:12:25.712Z,39.23
2022-08-04T09:15:07.979Z,39.10
2022-08-04T09:17:45.467Z,37.74
2022-08-04T09:20:25.132Z,37.78
2022-08-04T09:23:17.198Z,38.80
2022-08-04T09:25:49.559Z,37.62
2022-08-04T09:28:53.915Z,36.28
2022-08-04T09:31:24.466Z,38.65
2022-08-04T09:34:04.516Z,37.65
2022-08-04T09:36:51.496Z,36.57
2022-08-04T09:39:43.065Z,36.81
2022-08-04T09:42:29.272Z,36.16
2022-08-04T09:45:07.434Z,36.01
2022-08-04T09:47:49.233Z,36.36
2022-08-04T09:50:35.004Z,36.90
2022-08-04T09:53:26.382Z,38.09
2022-08-04T09:56:03.835Z,36.75
2022-08-04T09:58:45.361Z,37.25
2022-08-04T10:01:19.873Z,36.35
2022-08-04T10:03:52.113Z,36.92
2022-08-04T10:06:35.790Z,37.91
2022-08-04T10:09:27.003Z,35.39
2022-08-04T10:12:24.441Z,35.71
2022-08-04T10:15:25.347Z,36.34
2022-08-04T10:18:11.708Z,36.79
2022-08-04T10:21:15.676Z,34.57
2022-08-04T10:24:03.302Z,35.29
2022-08-04T10:27:21.237Z,35.05
2022-08-04T10:29:48.197Z,35.70
2022-08-04T10:32:25.345Z,34.01
2022-08-04T10:35:02.599Z,33.73
2022-08-04T10:38:00.015Z,33.45
2022-08-04T10:40:40.472Z,32.80
2022-08-04T10:43:36.041Z,34.51
2022-08-04T10:46:09.461Z,33.75
2022-08-04T10:48:51.620Z,34.12
2022-08-04T10:51:58.489Z,34.49
2022-08-04T10:54:51.668Z,35.41
2022-08-04T10:57:24.154Z,34.51
2022-08-04T11:00:03.922Z,34.69
2022-08-04T11:02:55.713Z,34.99
2022-08-04T11:05:43.863Z,34.47
2022-08-04T11:08:21.825Z,35.17
2022-08-04T11:11:25.952Z,34.72
2022-08-04T11:13:58.933Z,35.94
2022-08-04T11:16:37.287Z,35.17
2022-08-04T11:19:43.079Z,34.24
2022-08-04T11:22:22.559Z,34.52
2022-08-04T11:25:11.963Z,33.57
2022-08-04T11:27:56.629Z,31.86
2022-08-04T11:30:30.562Z,31.71
2022-08-04T11:33:27.253Z,35.81
2022-08-04T11:36:45.058Z,37.24
2022-08-04T11:39:35.026Z,43.57
2022-08-04T11:42:19.764Z,40.60
2022-08-04T11:45:07.732Z,35.58
2022-08-04T11:48:01.116Z,36.43
2022-08-04T11:50:38.466Z,35.79
2022-08-04T11:53:06.968Z,35.62
2022-08-04T11:56:08.036Z,35.73
2022-08-04T11:58:21.717Z,37.68
2022-08-04T12:01:07.299Z,36.08
2022-08-04T12:03:59.785Z,42.69
2022-08-04T12:06:42.521Z,36.49
2022-08-04T12:09:59.662Z,37.33
2022-08-04T12:12:38.872Z,37.02
2022-08-04T12:15:22.164Z,37.19
2022-08-04T12:18:03.563Z,36.54
2022-08-04T12:20:40.762Z,34.09
2022-08-04T12:23:15.499Z,36.45
2022-08-04T12:25:47.621Z,35.44
2022-08-04T12:28:26.097Z,35.14
2022-08-04T12:31:11.285Z,37.02
2022-08-04T12:34:04.151Z,34.84
2022-08-04T12:37:23.100Z,34.55
2022-08-04T12:40:28.831Z,34.27
2022-08-04T12:42:56.419Z,34.86
2022-08-04T12:45:27.167Z,34.36
2022-08-04T12:47:57.954Z,36.27
2022-08-04T12:50:25.083Z,35.32
2022-08-04T12:53:02.175Z,38.63
2022-08-04T12:55:31.804Z,34.37
2022-08-04T12:58:00.117Z,36.98
2022-08-04T13:00:40.837Z,33.97
2022-08-04T13:03:14.274Z,34.43
2022-08-04T13:05:42.199Z,33.78
2022-08-04T13:08:10.880Z,33.16
2022-08-04T13:10:39.778Z,32.77
2022-08-04T13:13:13.544Z,34.15
2022-08-04T13:15:47.185Z,33.90
2022-08-04T13:18:29.311Z,32.04
2022-08-04T13:21:08.621Z,32.71
2022-08-04T13:24:09.819Z,31.88
2022-08-04T13:26:44.987Z,34.07
2022-08-04T13:29:21.993Z,37.79
2022-08-04T13:34:34.976Z,34.12
2022-08-04T13:37:05.355Z,36.28
2022-08-04T13:39:33.009Z,37.41
2022-08-04T13:42:04.240Z,35.89
2022-08-04T13:44:34.174Z,35.00
2022-08-04T13:47:14.776Z,34.52
2022-08-04T13:50:00.795Z,32.96
2022-08-04T13:52:27.922Z,36.62
2022-08-04T13:54:54.372Z,35.12
2022-08-04T13:57:30.207Z,33.44
2022-08-04T14:00:01.408Z,33.18
2022-08-04T14:02:45.887Z,31.80
2022-08-04T14:05:27.081Z,33.83
2022-08-04T14:07:57.971Z,33.23
2022-08-04T14:10:24.821Z,35.03
2022-08-04T14:12:52.692Z,37.52
2022-08-04T14:16:01.721Z,38.27
2022-08-04T14:18:29.896Z,35.95
2022-08-04T14:21:05.594Z,32.13
2022-08-04T14:23:47.469Z,32.87
2022-08-04T14:26:15.343Z,33.62
2022-08-04T14:29:25.168Z,32.26
2022-08-04T14:31:31.034Z,33.47
2022-08-04T14:34:04.489Z,33.08
2022-08-04T14:36:56.066Z,34.93
2022-08-04T14:40:19.294Z,38.30
2022-08-04T14:42:55.376Z,37.12
2022-08-04T14:45:54.151Z,39.18
2022-08-04T14:48:21.834Z,39.25
2022-08-04T14:50:49.870Z,37.73
2022-08-04T14:53:21.890Z,38.33
2022-08-04T14:55:54.540Z,37.10
2022-08-04T14:58:36.457Z,36.01
2022-08-04T15:01:10.524Z,35.74
2022-08-04T15:03:51.019Z,36.27
2022-08-04T15:06:22.525Z,36.63
2022-08-04T15:08:51.134Z,35.73
2022-08-04T15:11:23.114Z,35.39
2022-08-04T15:13:50.177Z,35.09
2022-08-04T15:16:16.574Z,34.97
2022-08-04T15:18:42.985Z,34.81
2022-08-04T15:21:15.918Z,35.61
2022-08-04T15:23:42.323Z,34.44
2022-08-04T15:26:15.902Z,37.74
2022-08-04T15:28:54.639Z,36.03
2022-08-04T15:32:06.395Z,35.25
2022-08-04T15:34:10.416Z,36.18
2022-08-04T15:36:57.110Z,35.92
2022-08-04T15:39:49.923Z,34.72
2022-08-04T16:08:10.655Z,36.59
2022-08-04T16:39:49.656Z,38.34
2022-08-04T16:42:32.171Z,40.99
2022-08-04T16:45:11.498Z,40.54
2022-08-04T16:47:49.762Z,41.69
2022-08-04T16:50:20.437Z,40.22
2022-08-04T16:52:49.055Z,39.38
2022-08-04T16:55:19.513Z,39.66
2022-08-04T17:59:52.344Z,49.30
2022-08-04T18:02:33.166Z,45.56
2022-08-04T18:05:07.335Z,44.71
2022-08-04T18:13:25.912Z,46.63
2022-08-04T18:16:04.292Z,45.66
2022-08-04T18:18:31.014Z,47.51
2022-08-04T18:20:59.721Z,49.93
2022-08-04T18:23:31.780Z,50.38
2022-08-04T18:26:02.323Z,49.74
2022-08-04T18:28:30.735Z,54.03
2022-08-04T18:30:59.517Z,53.47
2022-08-04T18:33:40.485Z,54.41
2022-08-04T18:36:34.098Z,53.64
2022-08-04T18:38:58.681Z,53.52
2022-08-04T18:41:27.218Z,57.68
2022-08-04T18:49:10.138Z,58.04
2022-08-04T18:51:57.150Z,60.03
2022-08-04T18:54:28.396Z,54.79
2022-08-04T18:57:32.084Z,56.06
2022-08-04T18:59:46.429Z,60.57
2022-08-04T19:02:16.861Z,61.02
2022-08-04T19:04:44.941Z,61.22
2022-08-04T19:07:29.319Z,60.03
2022-08-04T19:09:59.716Z,59.94
2022-08-04T19:12:28.160Z,59.20
2022-08-04T19:14:57.978Z,66.53
2022-08-04T19:17:54.118Z,62.98
2022-08-04T19:20:15.937Z,63.94
2022-08-04T19:24:11.358Z,70.73
2022-08-04T19:25:41.538Z,68.38
2022-08-04T19:28:28.145Z,69.43
2022-08-04T19:30:58.790Z,66.81
2022-08-04T19:33:25.585Z,65.36
2022-08-04T19:35:56.620Z,64.73
2022-08-04T19:38:23.689Z,65.25
2022-08-04T19:40:52.863Z,64.03
2022-08-04T19:43:20.877Z,64.14
2022-08-04T19:45:49.659Z,66.37
2022-08-04T19:48:19.826Z,65.06
2022-08-04T19:50:47.357Z,65.32
2022-08-04T19:53:19.355Z,65.52
2022-08-04T19:55:49.964Z,68.61
2022-08-04T19:58:18.078Z,67.54
2022-08-04T20:00:51.367Z,66.55
2022-08-04T20:03:20.457Z,67.23
2022-08-04T20:08:35.975Z,66.01
2022-08-04T20:11:03.435Z,67.29
2022-08-04T20:13:37.094Z,66.58
2022-08-04T20:16:29.009Z,67.49
2022-08-04T20:19:01.018Z,69.33
2022-08-04T20:21:36.569Z,69.82
2022-08-04T20:24:36.464Z,71.00
2022-08-04T20:27:09.041Z,71.71
2022-08-04T20:29:40.781Z,70.50
2022-08-04T20:32:10.354Z,70.65
2022-08-04T20:34:40.179Z,71.26
2022-08-04T20:37:10.024Z,68.02
2022-08-04T20:39:37.972Z,69.37
2022-08-04T20:42:05.346Z,71.54
2022-08-04T20:44:33.459Z,70.89
2022-08-04T20:47:00.659Z,72.09
2022-08-04T20:49:34.883Z,68.57
2022-08-04T20:52:13.251Z,72.56
2022-08-04T20:54:41.562Z,74.02
2022-08-04T20:57:08.821Z,73.83
2022-08-04T20:59:36.275Z,77.44
2022-08-04T21:02:06.348Z,74.45
2022-08-04T21:04:46.313Z,75.99
2022-08-04T21:07:16.708Z,73.48
2022-08-04T21:09:50.064Z,76.79
2022-08-04T21:12:27.362Z,72.47
2022-08-04T21:17:57.725Z,70.35
2022-08-04T21:20:30.195Z,70.10
2022-08-04T21:23:01.555Z,68.76
2022-08-04T21:25:28.658Z,67.82
2022-08-04T21:27:58.886Z,66.83
2022-08-04T21:30:30.658Z,67.30
2022-08-04T21:32:57.319Z,67.71
2022-08-04T21:35:30.086Z,68.59
2022-08-04T21:38:17.453Z,68.79
2022-08-04T21:41:01.420Z,69.65
2022-08-04T21:43:42.481Z,69.07
2022-08-04T21:46:10.408Z,70.39
2022-08-04T21:48:39.209Z,70.50
2022-08-04T21:51:56.919Z,70.99
2022-08-04T21:54:08.734Z,72.74
2022-08-04T21:56:41.380Z,72.53
2022-08-04T21:59:17.393Z,73.28
2022-08-04T22:01:54.849Z,72.23
2022-08-04T22:04:21.809Z,73.97
2022-08-04T22:06:51.635Z,72.89
2022-08-04T22:09:19.004Z,73.99
2022-08-04T22:11:50.728Z,71.66
2022-08-04T22:14:27.177Z,71.84
2022-08-04T22:16:56.597Z,74.23
2022-08-04T22:19:27.424Z,76.90
2022-08-04T22:22:09.547Z,76.00
2022-08-04T22:24:40.132Z,76.48
2022-08-04T22:27:11.709Z,73.66
2022-08-04T22:29:39.392Z,74.82
2022-08-04T22:32:11.513Z,77.19
2022-08-04T22:34:45.616Z,76.51
2022-08-04T22:37:19.930Z,73.24
2022-08-04T22:40:03.576Z,72.97
2022-08-04T22:42:31.676Z,72.20
2022-08-04T22:44:58.485Z,73.39
2022-08-04T22:47:26.063Z,73.52
2022-08-04T22:50:13.548Z,72.99
2022-08-04T22:52:56.007Z,74.08
2022-08-04T22:55:23.107Z,73.25
2022-08-04T22:58:04.907Z,72.79
2022-08-04T23:00:32.696Z,71.51
2022-08-04T23:02:59.562Z,73.20
2022-08-04T23:05:35.563Z,71.83
2022-08-04T23:08:04.166Z,75.20
2022-08-04T23:10:33.080Z,73.97
2022-08-04T23:13:04.167Z,73.41
2022-08-04T23:15:33.651Z,74.37
2022-08-04T23:18:00.901Z,75.49
2022-08-04T23:20:33.095Z,75.91
2022-08-04T23:23:14.816Z,78.55
2022-08-04T23:26:07.486Z,80.97
2022-08-04T23:28:31.243Z,83.37
2022-08-04T23:30:57.675Z,84.42
2022-08-04T23:33:24.581Z,80.17
2022-08-04T23:36:11.944Z,78.99
2022-08-04T23:38:39.247Z,80.99
2022-08-04T23:41:13.444Z,83.52
2022-08-04T23:43:55.354Z,82.00
2022-08-04T23:46:22.757Z,83.17
2022-08-04T23:48:49.541Z,83.03
2022-08-04T23:51:16.346Z,86.37
2022-08-04T23:54:01.564Z,85.02
2022-08-04T23:56:29.716Z,85.38
2022-08-04T23:58:56.169Z,85.27
